KMCI/MCI METAR and TAF weather

Enter ICAO airport designator
Station Type Date Time Source
KMCI METAR 2021/01/20 22:53 UTC NOAA

KMCI 202253Z 20015KT 10SM CLR 11/M05 A2991 RMK AO2 SLP134 T01061050


Station Type Date Time Source
KMCI Decoded METAR 2021/01/20 22:53 UTC NOAA

KANSAS CITY INTERNATIONAL AIRPORT, MO, United States (KMCI) 39-18N 94-44W 320M
Jan 20, 2021 - 05:53 PM EST / 2021.01.20 2253 UTC
Wind: from the SSW (200 degrees) at 17 MPH (15 KT):0
Visibility: 10 mile(s):0
Sky conditions: clear
Temperature: 51.1 F (10.6 C)
Dew Point: 23.0 F (-5.0 C)
Relative Humidity: 32%
Pressure (altimeter): 29.91 in. Hg (1012 hPa)
ob: KMCI 202253Z 20015KT 10SM CLR 11/M05 A2991 RMK AO2 SLP134 T01061050
cycle: 23

Station Type Date Time Source
KMCI TAF 2021/01/20 18:22 UTC NOAA

TAF KMCI 201720Z 2018/2118 20018G35KT P6SM SCT200
FM210100 22008KT P6SM SCT150
FM210800 VRB05KT P6SM SKC

Example: see airport list